Home > Products > Valid Products > MTR

000
SAUS43 KMQT 270404 COR
MTRP53
METAR KP53 270356Z AUTO 02004KT 03/M01 A3010 RMK AO1 SLP199
T00281006





000
SAUS43 KMQT 270354
MTRP59
METAR KP59 270351Z AUTO 34010KT 05/M02 A3013 RMK AO1 SLP211
T00501022





000
SAUS43 KMQT 270303 COR
MTRP53
METAR KP53 270256Z AUTO 34010KT 04/M01 A3009 RMK AO1 SLP196
T00441011 50001





000
SAUS43 KMQT 270303 COR
MTRP53
METAR KP53 270256Z AUTO 34010KT 04/M01 A3009 RMK AO1 SLP196
T00441011 50001





000
SAUS43 KMQT 270254
MTRP59
METAR KP59 270251Z AUTO 34013G17KT 05/M02 A3012 RMK AO1 SLP208
T00501022 50002





000
SAUS43 KMQT 270254
MTRP59
METAR KP59 270251Z AUTO 34013G17KT 05/M02 A3012 RMK AO1 SLP208
T00501022 50002





000
SAUS43 KMQT 270203 COR
MTRP53
METAR KP53 270156Z AUTO 32008KT 04/M01 A3010 RMK AO1 SLP198
T00391011





000
SAUS43 KMQT 270153
MTRP59
METAR KP59 270151Z AUTO 35012G19KT 04/M02 A3013 RMK AO1 SLP210
T00391017





000
SAUS43 KMQT 270103 COR
MTRP53
METAR KP53 270056Z AUTO 36008KT 03/M01 A3008 RMK AO1 SLP194
T00331011





000
SAUS43 KMQT 270054
MTRP59
METAR KP59 270051Z AUTO 35012KT 06/M01 A3012 RMK AO1 SLP206
T00611011





000
SAUS43 KMQT 270054
MTRP59
METAR KP59 270051Z AUTO 35012KT 06/M01 A3012 RMK AO1 SLP206
T00611011





000
SAUS43 KMQT 270004 COR
MTRP53
METAR KP53 262356Z AUTO 35008KT 03/M01 A3009 RMK AO1 SLP196
T00331011 10044 20033 58006





000
SAUS43 KMQT 270004 COR
MTRP53
METAR KP53 262356Z AUTO 35008KT 03/M01 A3009 RMK AO1 SLP196
T00331011 10044 20033 58006





000
SAUS43 KMQT 262352
MTRP59
METAR KP59 262351Z AUTO 35011KT 07/M01 A3011 RMK AO1 SLP205
T00721011 10078 20033 56007





000
SAUS43 KMQT 262303 COR
MTRP53
METAR KP53 262256Z AUTO 34009KT 03/M01 A3010 RMK AO1 SLP200
T00331011





000
SAUS43 KMQT 262253
MTRP59
METAR KP59 262251Z AUTO 36011KT 07/M01 A3012 RMK AO1 SLP208
T00721011





000
SAUS43 KMQT 262253
MTRP59
METAR KP59 262251Z AUTO 36011KT 07/M01 A3012 RMK AO1 SLP208
T00721011





000
SAUS43 KMQT 262203 COR
MTRP53
METAR KP53 262156Z AUTO 33014KT 03/M01 A3010 RMK AO1 SLP201
T00331011





000
SAUS43 KMQT 262203 COR
MTRP53
METAR KP53 262156Z AUTO 33014KT 03/M01 A3010 RMK AO1 SLP201
T00331011





000
SAUS43 KMQT 262153
MTRP59
METAR KP59 262151Z AUTO 35012KT 07/M01 A3012 RMK AO1 SLP210
T00721011





000
SAUS43 KMQT 262104 COR
MTRP53
METAR KP53 262056Z AUTO 33016KT 04/M01 A3011 RMK AO1 SLP203
T00391011 50001





000
SAUS43 KMQT 262053
MTRP59
METAR KP59 262051Z AUTO 35014KT 07/M01 A3014 RMK AO1 SLP213
T00671011 57008





000
SAUS43 KMQT 262053
MTRP59
METAR KP59 262051Z AUTO 35014KT 07/M01 A3014 RMK AO1 SLP213
T00671011 57008





000
SAUS43 KMQT 262004 COR
MTRP53
METAR KP53 261956Z AUTO 32015KT 03/M01 A3011 RMK AO1 SLP203
T00331006





000
SAUS43 KMQT 262004 COR
MTRP53
METAR KP53 261956Z AUTO 32015KT 03/M01 A3011 RMK AO1 SLP203
T00331006





000
SAUS43 KMQT 261952
MTRP59
METAR KP59 261951Z AUTO 36010KT 06/M01 A3014 RMK AO1 SLP215
T00561011





000
SAUS43 KMQT 261904 COR
MTRP53
METAR KP53 261856Z AUTO 33017KT 03/M01 A3011 RMK AO1 SLP203
T00331011





000
SAUS43 KMQT 261852
MTRP59
METAR KP59 261851Z AUTO 36010KT 04/M01 A3016 RMK AO1 SLP221
T00391006





000
SAUS43 KMQT 261804 COR
MTRP53
METAR KP53 261756Z AUTO 33014KT 04/M01 A3010 RMK AO1 SLP202
T00391011 10044 21006 51003





000
SAUS43 KMQT 261804 COR
MTRP53
METAR KP53 261756Z AUTO 33014KT 04/M01 A3010 RMK AO1 SLP202
T00391011 10044 21006 51003





000
SAUS43 KMQT 261754
MTRP59
METAR KP59 261751Z AUTO 36009KT 04/M01 A3016 RMK AO1 SLP222
T00391006 10039 20022 50004





000
SAUS43 KMQT 261754
MTRP59
METAR KP59 261751Z AUTO 36009KT 04/M01 A3016 RMK AO1 SLP222
T00391006 10039 20022 50004





000
SAUS43 KMQT 261703 COR
MTRP53
METAR KP53 261656Z AUTO 33013KT 04/M01 A3010 RMK AO1 SLP201
T00441011





000
SAUS43 KMQT 261703 COR
MTRP53
METAR KP53 261656Z AUTO 33013KT 04/M01 A3010 RMK AO1 SLP201
T00441011





000
SAUS43 KMQT 261653
MTRP59
METAR KP59 261651Z AUTO 02006KT 03/M01 A3016 RMK AO1 SLP223
T00281006





000
SAUS43 KMQT 261653
MTRP59
METAR KP59 261651Z AUTO 02006KT 03/M01 A3016 RMK AO1 SLP223
T00281006





000
SAUS43 KMQT 261603 COR
MTRP53
METAR KP53 261556Z AUTO 36012KT 04/M01 A3010 RMK AO1 SLP200
T00391011





000
SAUS43 KMQT 261552
MTRP59
METAR KP59 261551Z AUTO 05004KT 03/M01 A3016 RMK AO1 SLP223
T00331006





000
SAUS43 KMQT 261503 COR
MTRP53
METAR KP53 261456Z AUTO 36013KT 03/M01 A3009 RMK AO1 SLP198
T00331011 52015





000
SAUS43 KMQT 261503 COR
MTRP53
METAR KP53 261456Z AUTO 36013KT 03/M01 A3009 RMK AO1 SLP198
T00331011 52015





000
SAUS43 KMQT 261454
MTRP59
METAR KP59 261451Z AUTO 07005KT 03/M01 A3015 RMK AO1 SLP219
T00281011 51013





000
SAUS43 KMQT 261404 COR
MTRP53
METAR KP53 261356Z AUTO 36012KT 03/M01 A3008 RMK AO1 SLP194
T00331011





000
SAUS43 KMQT 261404 COR
MTRP53
METAR KP53 261356Z AUTO 36012KT 03/M01 A3008 RMK AO1 SLP194
T00331011





000
SAUS43 KMQT 261354
MTRP59
METAR KP59 261351Z AUTO 04003KT 03/M01 A3014 RMK AO1 SLP218
T00281006





000
SAUS43 KMQT 261354
MTRP59
METAR KP59 261351Z AUTO 04003KT 03/M01 A3014 RMK AO1 SLP218
T00281006





000
SAUS43 KMQT 261304 COR
MTRP53
METAR KP53 261256Z AUTO 34007KT 03/M01 A3006 RMK AO1 SLP188
T00281011





000
SAUS43 KMQT 261304 COR
MTRP53
METAR KP53 261256Z AUTO 34007KT 03/M01 A3006 RMK AO1 SLP188
T00281011





000
SAUS43 KMQT 261252
MTRP59
METAR KP59 261251Z AUTO 04003KT 03/M01 A3012 RMK AO1 SLP209
T00281011





000
SAUS43 KMQT 261252
MTRP59
METAR KP59 261251Z AUTO 04003KT 03/M01 A3012 RMK AO1 SLP209
T00281011





000
SAUS43 KMQT 261203 COR
MTRP53
METAR KP53 261156Z AUTO 00000KT M01/M03 A3005 RMK AO1 SLP183
T10061028 10017 21022 52013





000
SAUS43 KMQT 261203 COR
MTRP53
METAR KP53 261156Z AUTO 00000KT M01/M03 A3005 RMK AO1 SLP183
T10061028 10017 21022 52013





000
SAUS43 KMQT 261153
MTRP59
METAR KP59 261151Z AUTO 00000KT 02/M02 A3011 RMK AO1 SLP205
T00221017 10028 21006 53015





000
SAUS43 KMQT 261153
MTRP59
METAR KP59 261151Z AUTO 00000KT 02/M02 A3011 RMK AO1 SLP205
T00221017 10028 21006 53015





000
SAUS43 KMQT 261103 COR
MTRP53
METAR KP53 261056Z AUTO 00000KT M01/M03 A3004 RMK AO1 SLP181
T10111033





000
SAUS43 KMQT 261054
MTRP59
METAR KP59 261051Z AUTO 00000KT 01/M03 A3008 RMK AO1 SLP197
T00061028





000
SAUS43 KMQT 261054
MTRP59
METAR KP59 261051Z AUTO 00000KT 01/M03 A3008 RMK AO1 SLP197
T00061028





000
SAUS43 KMQT 261004 COR
MTRP53
METAR KP53 260956Z AUTO 00000KT M02/M04 A3002 RMK AO1 SLP174
T10171039





000
SAUS43 KMQT 261004 COR
MTRP53
METAR KP53 260956Z AUTO 00000KT M02/M04 A3002 RMK AO1 SLP174
T10171039





000
SAUS43 KMQT 260954
MTRP59
METAR KP59 260951Z AUTO 00000KT 00/M04 A3007 RMK AO1 SLP194
T00001039





000
SAUS43 KMQT 260903 COR
MTRP53
METAR KP53 260856Z AUTO 00000KT M02/M04 A3001 RMK AO1 SLP170
T10171044 53002





000
SAUS43 KMQT 260858 COR
MTRP59
METAR KP59 260851Z AUTO 34004KT 01/M04 A3006 RMK AO1 SLP189
T00111039 53006





000
SAUS43 KMQT 260853
MTRP59
METAR*y
&M04KT 01/M04 A3006 RMK AO1 SLP189 QjE[{_
REQ ARBMTRP59





000
SAUS43 KMQT 260803 COR
MTRP53
METAR KP53 260756Z AUTO 31007KT 01/M02 A3001 RMK AO1 SLP170
T00111022





000
SAUS43 KMQT 260754
MTRP59
METAR KP59 260751Z AUTO 35005KT 02/M05 A3005 RMK AO1 SLP186
T00171050





000
SAUS43 KMQT 260754
MTRP59
METAR KP59 260751Z AUTO 35005KT 02/M05 A3005 RMK AO1 SLP186
T00171050





000
SAUS43 KMQT 260703 COR
MTRP53
METAR KP53 260656Z AUTO 00000KT M02/M04 A3000 RMK AO1 SLP167
T10221044





000
SAUS43 KMQT 260703 COR
MTRP53
METAR KP53 260656Z AUTO 00000KT M02/M04 A3000 RMK AO1 SLP167
T10221044





000
SAUS43 KMQT 260654
MTRP59
METAR KP59 260651Z AUTO 00000KT 02/M06 A3004 RMK AO1 SLP181
T00171056





000
SAUS43 KMQT 260654
MTRP59
METAR KP59 260651Z AUTO 00000KT 02/M06 A3004 RMK AO1 SLP181
T00171056





000
SAUS43 KMQT 260603 COR
MTRP53
METAR KP53 260556Z AUTO 16003KT M02/M04 A3001 RMK AO1 SLP169
T10171044 10022 21017 50001





000
SAUS43 KMQT 260603 COR
MTRP53
METAR KP53 260556Z AUTO 16003KT M02/M04 A3001 RMK AO1 SLP169
T10171044 10022 21017 50001





000
SAUS43 KMQT 260552
MTRP59
METAR KP59 260551Z AUTO 00000KT 00/M05 A3004 RMK AO1 SLP183
T00001050 10028 21011 53003





000
SAUS43 KMQT 260504 COR
MTRP53
METAR KP53 260456Z AUTO 01005KT 01/M03 A3001 RMK AO1 SLP170
T00111028 400391033





000
SAUS43 KMQT 260504 COR
MTRP53
METAR KP53 260456Z AUTO 01005KT 01/M03 A3001 RMK AO1 SLP170
T00111028 400391033





000
SAUS43 KMQT 260454
MTRP59
METAR KP59 260451Z AUTO 34003KT 01/M07 A3003 RMK AO1 SLP180
T00111072 400441033





000
SAUS43 KMQT 260403 COR
MTRP53
METAR KP53 260356Z AUTO 00000KT M01/M04 A3001 RMK AO1 SLP171
T10111039





000
SAUS43 KMQT 260403 COR
MTRP53
METAR KP53 260356Z AUTO 00000KT M01/M04 A3001 RMK AO1 SLP171
T10111039





000
SAUS43 KMQT 260353
MTRP59
METAR KP59 260351Z AUTO 00000KT M01/M06 A3003 RMK AO1 SLP180
T10061056





000
SAUS43 KMQT 260304 COR
MTRP53
METAR KP53 260256Z AUTO 00000KT 00/M03 A3001 RMK AO1 SLP168
T00001033 51010





000
SAUS43 KMQT 260304 COR
MTRP53
METAR KP53 260256Z AUTO 00000KT 00/M03 A3001 RMK AO1 SLP168
T00001033 51010





000
SAUS43 KMQT 260254
MTRP59
METAR KP59 260251Z AUTO 00000KT M01/M04 A3003 RMK AO1 SLP180
T10061044 53005





000
SAUS43 KMQT 260204 COR
MTRP53
METAR KP53 260156Z AUTO 35004KT 02/M02 A3000 RMK AO1 SLP166
T00171022





000
SAUS43 KMQT 260204 COR
MTRP53
METAR KP53 260156Z AUTO 35004KT 02/M02 A3000 RMK AO1 SLP166
T00171022





000
SAUS43 KMQT 260154
MTRP59
METAR KP59 260151Z AUTO 26004KT 00/M04 A3002 RMK AO1 SLP176
T00001044





000
SAUS43 KMQT 260103 COR
MTRP53
METAR KP53 260056Z AUTO 36005KT 02/M02 A2999 RMK AO1 SLP162
T00171017





000
SAUS43 KMQT 260054
MTRP59
METAR KP59 260051Z AUTO 00000KT 02/M02 A3002 RMK AO1 SLP175
T00171017





000
SAUS43 KMQT 260054
MTRP59
METAR KP59 260051Z AUTO 00000KT 02/M02 A3002 RMK AO1 SLP175
T00171017





000
SAUS43 KMQT 260004 COR
MTRP53
METAR KP53 252356Z AUTO 06008KT 02/M01 A2998 RMK AO1 SLP159
T00221011 10039 20022 53003





000
SAUS43 KMQT 252354
MTRP59
METAR KP59 252351Z AUTO 36005KT 02/M01 A3002 RMK AO1 SLP175
T00221006 10039 20022 55000





000
SAUS43 KMQT 252354
MTRP59
METAR KP59 252351Z AUTO 36005KT 02/M01 A3002 RMK AO1 SLP175
T00221006 10039 20022 55000





000
SAUS43 KMQT 252303 COR
MTRP53
METAR KP53 252256Z AUTO 05011KT 03/M02 A2997 RMK AO1 SLP157
T00281017





000
SAUS43 KMQT 252303 COR
MTRP53
METAR KP53 252256Z AUTO 05011KT 03/M02 A2997 RMK AO1 SLP157
T00281017





000
SAUS43 KMQT 252254
MTRP59
METAR KP59 252251Z AUTO 00000KT 03/M01 A3001 RMK AO1 SLP173
T00331011





000
SAUS43 KMQT 252254
MTRP59
METAR KP59 252251Z AUTO 00000KT 03/M01 A3001 RMK AO1 SLP173
T00331011





000
SAUS43 KMQT 252204 COR
MTRP53
METAR KP53 252156Z AUTO 05009KT 03/M02 A2997 RMK AO1 SLP156
T00281017





000
SAUS43 KMQT 252154
MTRP59
METAR KP59 252151Z AUTO 02003KT 03/M01 A3001 RMK AO1 SLP173
T00281011





000
SAUS43 KMQT 252104 COR
MTRP53
METAR KP53 252056Z AUTO 02008KT 03/M02 A2997 RMK AO1 SLP155
T00331022 56006





000
SAUS43 KMQT 252054
MTRP59
METAR KP59 252051Z AUTO 04003KT 03/M01 A3002 RMK AO1 SLP176
T00281011 57007





000
SAUS43 KMQT 252004 COR
MTRP53
METAR KP53 251956Z AUTO 03015KT 03/M04 A2997 RMK AO1 SLP156
T00331039





000
SAUS43 KMQT 251952
MTRP59
METAR KP59 251951Z AUTO 06005KT 03/M01 A3002 RMK AO1 SLP178
T00281011





000
SAUS43 KMQT 251903 COR
MTRP53
METAR KP53 251856Z AUTO 02009KT 04/M03 A2997 RMK AO1 SLP157
T00391033





000
SAUS43 KMQT 251903 COR
MTRP53
METAR KP53 251856Z AUTO 02009KT 04/M03 A2997 RMK AO1 SLP157
T00391033





000
SAUS43 KMQT 251854
MTRP59
METAR KP59 251851Z AUTO 08007KT 03/M01 A3003 RMK AO1 SLP179
T00331011





000
SAUS43 KMQT 251804 COR
MTRP53
METAR KP53 251756Z AUTO 01010KT 03/M02 A2999 RMK AO1 SLP162
T00331022 10033 21017 58013





000
SAUS43 KMQT 251804 COR
MTRP53
METAR KP53 251756Z AUTO 01010KT 03/M02 A2999 RMK AO1 SLP162
T00331022 10033 21017 58013





000
SAUS43 KMQT 251752
MTRP59
METAR KP59 251751Z AUTO 08006KT 04/M01 A3004 RMK AO1 SLP182
T00391006 10044 21017 58002





000
SAUS43 KMQT 251704 COR
MTRP53
METAR KP53 251656Z AUTO 02008KT 03/M03 A3001 RMK AO1 SLP168
T00281028





000
SAUS43 KMQT 251704 COR
MTRP53
METAR KP53 251656Z AUTO 02008KT 03/M03 A3001 RMK AO1 SLP168
T00281028





000
SAUS43 KMQT 251654
MTRP59
METAR KP59 251651Z AUTO 11007KT 04/M02 A3004 RMK AO1 SLP183
T00391022





000
SAUS43 KMQT 251604 COR
MTRP53
METAR KP53 251556Z AUTO 03010KT 02/M03 A3001 RMK AO1 SLP171
T00221028





000
SAUS43 KMQT 251553
MTRP59
METAR KP59 251551Z AUTO 09006KT 03/M01 A3004 RMK AO1 SLP184
T00331011





000
SAUS43 KMQT 251503 COR
MTRP53
METAR KP53 251456Z AUTO 03008KT 02/M02 A3003 RMK AO1 SLP175
T00221022 50000





000
SAUS43 KMQT 251453
MTRP59
METAR KP59 251451Z AUTO 10007KT 03/M02 A3004 RMK AO1 SLP184
T00281017 58001





000
SAUS43 KMQT 251404 COR
MTRP53
METAR KP53 251356Z AUTO 04008KT 02/M03 A3003 RMK AO1 SLP176
T00171028





000
SAUS43 KMQT 251354
MTRP59
METAR KP59 251351Z AUTO 11007KT 02/M03 A3006 RMK AO1 SLP189
T00171028





000
SAUS43 KMQT 251354
MTRP59
METAR KP59 251351Z AUTO 11007KT 02/M03 A3006 RMK AO1 SLP189
T00171028





000
SAUS43 KMQT 251304 COR
MTRP53
METAR KP53 251256Z AUTO 36005KT 01/M07 A3002 RMK AO1 SLP174
T00061067





000
SAUS43 KMQT 251304 COR
MTRP53
METAR KP53 251256Z AUTO 36005KT 01/M07 A3002 RMK AO1 SLP174
T00061067





000
SAUS43 KMQT 251254
MTRP59
METAR KP59 251251Z AUTO 00000KT 01/M03 A3006 RMK AO1 SLP189
T00111033





000
SAUS43 KMQT 251204 COR
MTRP53
METAR KP53 251156Z AUTO 00000KT M02/M07 A3003 RMK AO1 SLP176
T10171067 10006 21033 53005





000
SAUS43 KMQT 251204 COR
MTRP53
METAR KP53 251156Z AUTO 00000KT M02/M07 A3003 RMK AO1 SLP176
T10171067 10006 21033 53005





000
SAUS43 KMQT 251153
MTRP59
METAR KP59 251151Z AUTO 28003KT M02/M06 A3005 RMK AO1 SLP186
T10171056 11011 21033 53008





000
SAUS43 KMQT 251153
MTRP59
METAR KP59 251151Z AUTO 28003KT M02/M06 A3005 RMK AO1 SLP186
T10171056 11011 21033 53008





000
SAUS43 KMQT 251103 COR
MTRP53
METAR KP53 251056Z AUTO 18004KT M03/M07 A3001 RMK AO1 SLP171
T10331072





000
SAUS43 KMQT 251103 COR
MTRP53
METAR KP53 251056Z AUTO 18004KT M03/M07 A3001 RMK AO1 SLP171
T10331072





000
SAUS43 KMQT 251053
MTRP59
METAR KP59 251051Z AUTO 25005KT M03/M06 A3003 RMK AO1 SLP179
T10331061





000
SAUS43 KMQT 251053
MTRP59
METAR KP59 251051Z AUTO 25005KT M03/M06 A3003 RMK AO1 SLP179
T10331061





000
SAUS43 KMQT 251003 COR
MTRP53
METAR KP53 250956Z AUTO 00000KT M03/M07 A3001 RMK AO1 SLP171
T10281072





000
SAUS43 KMQT 250953
MTRP59
METAR KP59 250951Z AUTO 22003KT M03/M05 A3003 RMK AO1 SLP180
T10331050





000
SAUS43 KMQT 250903 COR
MTRP53
METAR KP53 250856Z AUTO 00000KT M02/M06 A3001 RMK AO1 SLP170
T10171061 56008





000
SAUS43 KMQT 250903 COR
MTRP53
METAR KP53 250856Z AUTO 00000KT M02/M06 A3001 RMK AO1 SLP170
T10171061 56008





000
SAUS43 KMQT 250854
MTRP59
METAR KP59 250851Z AUTO 00000KT M02/M04 A3002 RMK AO1 SLP178
T10221044 55004





000
SAUS43 KMQT 250803 COR
MTRP53
METAR KP53 250756Z AUTO 00000KT M01/M06 A3001 RMK AO1 SLP171
T10061056





000
SAUS43 KMQT 250753
MTRP59
METAR KP59 250751Z AUTO 00000KT M02/M04 A3002 RMK AO1 SLP177
T10221044





000
SAUS43 KMQT 250753
MTRP59
METAR KP59 250751Z AUTO 00000KT M02/M04 A3002 RMK AO1 SLP177
T10221044





000
SAUS43 KMQT 250703 COR
MTRP53
METAR KP53 250656Z AUTO 00000KT 01/M05 A3002 RMK AO1 SLP171
T00061050





000
SAUS43 KMQT 250654
MTRP59
METAR KP59 250651Z AUTO 22003KT M02/M04 A3004 RMK AO1 SLP182
T10171044





000
SAUS43 KMQT 250603 COR
MTRP53
METAR KP53 250556Z AUTO 00000KT 01/M06 A3003 RMK AO1 SLP178
T00061056 10028 20000 58002





000
SAUS43 KMQT 250552
MTRP59
METAR KP59 250551Z AUTO 00000KT M02/M04 A3004 RMK AO1 SLP181
T10171044 10022 21017 58003





000
SAUS43 KMQT 250552
MTRP59
METAR KP59 250551Z AUTO 00000KT M02/M04 A3004 RMK AO1 SLP181
T10171044 10022 21017 58003





000
SAUS43 KMQT 250503 COR
MTRP53
METAR KP53 250456Z AUTO 00000KT 01/M05 A3004 RMK AO1 SLP180
T00061050 400441056





000
SAUS43 KMQT 250452
MTRP59
METAR KP59 250451Z AUTO 00000KT M01/M04 A3005 RMK AO1 SLP186
T10061044 400501044





000
SAUS43 KMQT 250403 COR
MTRP53
METAR KP53 250356Z AUTO 00000KT 01/M07 A3004 RMK AO1 SLP181
T00061067





000
SAUS43 KMQT 250354
MTRP59
METAR KP59 250351Z AUTO 00000KT M01/M04 A3004 RMK AO1 SLP184
T10061044





000
SAUS43 KMQT 250304 COR
MTRP53
METAR KP53 250256Z AUTO 00000KT 01/M05 A3004 RMK AO1 SLP180
T00061050 53001





000
SAUS43 KMQT 250253
MTRP59
METAR KP59 250251Z AUTO VRB03KT 00/M04 A3005 RMK AO1 SLP184
T00001044 51005





000
SAUS43 KMQT 250204 COR
MTRP53
METAR KP53 250156Z AUTO 00000KT 01/M05 A3004 RMK AO1 SLP180
T00061050





000
SAUS43 KMQT 250154
MTRP59
METAR KP59 250151Z AUTO 00000KT 00/M04 A3004 RMK AO1 SLP184
T00001039





000
SAUS43 KMQT 250104 COR
MTRP53
METAR KP53 250056Z AUTO 03006KT 01/M05 A3004 RMK AO1 SLP180
T00111050





000
SAUS43 KMQT 250054
MTRP59
METAR KP59 250051Z AUTO 23005KT 01/M06 A3004 RMK AO1 SLP183
T00061056





000
SAUS43 KMQT 250004 COR
MTRP53
METAR KP53 242356Z AUTO 03006KT 03/M06 A3004 RMK AO1 SLP180
T00281056 10028 20022 55001





000
SAUS43 KMQT 242353
MTRP59
METAR KP59 242351Z AUTO 13004KT 02/M08 A3003 RMK AO1 SLP180
T00221083 10044 20022 56008





000
SAUS43 KMQT 242353
MTRP59
METAR KP59 242351Z AUTO 13004KT 02/M08 A3003 RMK AO1 SLP180
T00221083 10044 20022 56008





000
SAUS43 KMQT 242303 COR
MTRP53
METAR KP53 242256Z AUTO 03015KT 02/M06 A3003 RMK AO1 SLP177
T00221061





000
SAUS43 KMQT 242303 COR
MTRP53
METAR KP53 242256Z AUTO 03015KT 02/M06 A3003 RMK AO1 SLP177
T00221061





000
SAUS43 KMQT 242253
MTRP59
METAR KP59 242251Z AUTO 12005KT 03/M06 A3003 RMK AO1 SLP182
T00281056





000
SAUS43 KMQT 242203 COR
MTRP53
METAR KP53 242156Z AUTO 03017KT 03/M06 A3003 RMK AO1 SLP178
T00281061





000
SAUS43 KMQT 242154
MTRP59
METAR KP59 242151Z AUTO 11009KT 02/M03 A3004 RMK AO1 SLP186
T00221033





000
SAUS43 KMQT 242103 COR
MTRP53
METAR KP53 242056Z AUTO 03015KT 02/M06 A3004 RMK AO1 SLP182
T00221056 56013





000
SAUS43 KMQT 242103 COR
MTRP53
METAR KP53 242056Z AUTO 03015KT 02/M06 A3004 RMK AO1 SLP182
T00221056 56013





000
SAUS43 KMQT 242054
MTRP59
METAR KP59 242051Z AUTO 11011KT 03/M03 A3005 RMK AO1 SLP188
T00281033 56008





000
SAUS43 KMQT 242004 COR
MTRP53
METAR KP53 241956Z AUTO 04013KT 03/M04 A3005 RMK AO1 SLP186
T00281039





000
SAUS43 KMQT 241953
MTRP59
METAR KP59 241951Z AUTO 11013KT 03/M02 A3006 RMK AO1 SLP191
T00281022





000
SAUS43 KMQT 241904 COR
MTRP53
METAR KP53 241856Z AUTO 04014KT 02/M04 A3007 RMK AO1 SLP190
T00221039





000
SAUS43 KMQT 241854
MTRP59
METAR KP59 241851Z AUTO 11011KT 03/M03 A3007 RMK AO1 SLP193
T00281028





000
SAUS43 KMQT 241804 COR
MTRP53
METAR KP53 241756Z AUTO 04013KT 02/M05 A3008 RMK AO1 SLP195
T00221050 10044 21039 58008





000
SAUS43 KMQT 241804 COR
MTRP53
METAR KP53 241756Z AUTO 04013KT 02/M05 A3008 RMK AO1 SLP195
T00221050 10044 21039 58008





000
SAUS43 KMQT 241752
MTRP59
METAR KP59 241751Z AUTO 00000KT 04/M06 A3008 RMK AO1 SLP195
T00441056 10050 21017 56008





000
SAUS43 KMQT 241704 COR
MTRP53
METAR KP53 241656Z AUTO 04010KT 03/M06 A3010 RMK AO1 SLP200
T00281056





000
SAUS43 KMQT 241654
MTRP59
METAR KP59 241651Z AUTO 10007KT 04/M04 A3008 RMK AO1 SLP196
T00391039





000
SAUS43 KMQT 241603 COR
MTRP53
METAR KP53 241556Z AUTO 04008KT 03/M06 A3011 RMK AO1 SLP205
T00331056





000
SAUS43 KMQT 241554
MTRP59
METAR KP59 241551Z AUTO 11006KT 03/M07 A3010 RMK AO1 SLP202
T00281067





000
SAUS43 KMQT 241504 COR
MTRP53
METAR KP53 241456Z AUTO 05007KT 04/M07 A3010 RMK AO1 SLP202
T00391067 51003





000
SAUS43 KMQT 241504 COR
MTRP53
METAR KP53 241456Z AUTO 05007KT 04/M07 A3010 RMK AO1 SLP202
T00391067 51003





000
SAUS43 KMQT 241453
MTRP59
METAR KP59 241451Z AUTO 09003KT 03/M04 A3010 RMK AO1 SLP203
T00281039 51007





000
SAUS43 KMQT 241403 COR
MTRP53
METAR KP53 241356Z AUTO 00000KT 03/M08 A3010 RMK AO1 SLP202
T00331078





000
SAUS43 KMQT 241352
MTRP59
METAR KP59 241351Z AUTO 00000KT 03/M05 A3009 RMK AO1 SLP200
T00281050





000
SAUS43 KMQT 241303 COR
MTRP53
METAR KP53 241256Z AUTO 17003KT 00/M04 A3011 RMK AO1 SLP202
T00001044





000
SAUS43 KMQT 241303 COR
MTRP53
METAR KP53 241256Z AUTO 17003KT 00/M04 A3011 RMK AO1 SLP202
T00001044





000
SAUS43 KMQT 241254
MTRP59
METAR KP59 241251Z AUTO 23005KT 01/M04 A3009 RMK AO1 SLP199
T00111039





000
SAUS43 KMQT 241204 COR
MTRP53
METAR KP53 241156Z AUTO 18005KT M04/M07 A3010 RMK AO1 SLP200
T10391072 11033 21056 53011





000
SAUS43 KMQT 241204 COR
MTRP53
METAR KP53 241156Z AUTO 18005KT M04/M07 A3010 RMK AO1 SLP200
T10391072 11033 21056 53011





000
SAUS43 KMQT 241153
MTRP59
METAR KP59 241151Z AUTO VRB04KT M02/M04 A3008 RMK AO1 SLP196
T10171044 11017 21044 52009





000
SAUS43 KMQT 241153
MTRP59
METAR KP59 241151Z AUTO VRB04KT M02/M04 A3008 RMK AO1 SLP196
T10171044 11017 21044 52009





000
SAUS43 KMQT 241103 COR
MTRP53
METAR KP53 241056Z AUTO 18006KT M05/M08 A3008 RMK AO1 SLP197
T10501078





000
SAUS43 KMQT 241103 COR
MTRP53
METAR KP53 241056Z AUTO 18006KT M05/M08 A3008 RMK AO1 SLP197
T10501078





000
SAUS43 KMQT 241053
MTRP59
METAR KP59 241051Z AUTO 26005KT M04/M07 A3007 RMK AO1 SLP194
T10391067





000
SAUS43 KMQT 241004 COR
MTRP53
METAR KP53 240956Z AUTO 18004KT M05/M08 A3007 RMK AO1 SLP192
T10501078





000
SAUS43 KMQT 241004 COR
MTRP53
METAR KP53 240956Z AUTO 18004KT M05/M08 A3007 RMK AO1 SLP192
T10501078





000
SAUS43 KMQT 240952
MTRP59
METAR KP59 240951Z AUTO 24004KT M04/M07 A3006 RMK AO1 SLP191
T10391067





000
SAUS43 KMQT 240952
MTRP59
METAR KP59 240951Z AUTO 24004KT M04/M07 A3006 RMK AO1 SLP191
T10391067





000
SAUS43 KMQT 240903 COR
MTRP53
METAR KP53 240856Z AUTO 18006KT M05/M08 A3006 RMK AO1 SLP190
T10501078 52009





000
SAUS43 KMQT 240854
MTRP59
METAR KP59 240851Z AUTO 24005KT M03/M06 A3005 RMK AO1 SLP188
T10331061 51007





000
SAUS43 KMQT 240803 COR
MTRP53
METAR KP53 240756Z AUTO 18005KT M04/M07 A3006 RMK AO1 SLP188
T10441072





000
SAUS43 KMQT 240803 COR
MTRP53
METAR KP53 240756Z AUTO 18005KT M04/M07 A3006 RMK AO1 SLP188
T10441072





000
SAUS43 KMQT 240754
MTRP59
METAR KP59 240751Z AUTO 25005KT M03/M05 A3005 RMK AO1 SLP186
T10281050





000
SAUS43 KMQT 240754
MTRP59
METAR KP59 240751Z AUTO 25005KT M03/M05 A3005 RMK AO1 SLP186
T10281050





000
SAUS43 KMQT 240703 COR
MTRP53
METAR KP53 240656Z AUTO 18007KT M04/M07 A3004 RMK AO1 SLP182
T10391072





000
SAUS43 KMQT 240654
MTRP59
METAR KP59 240651Z AUTO 25005KT M02/M05 A3004 RMK AO1 SLP186
T10221050





000
SAUS43 KMQT 240654
MTRP59
METAR KP59 240651Z AUTO 25005KT M02/M05 A3004 RMK AO1 SLP186
T10221050





000
SAUS43 KMQT 240604 COR
MTRP53
METAR KP53 240556Z AUTO 18005KT M03/M07 A3003 RMK AO1 SLP180
T10331072 10028 21033 53008





000
SAUS43 KMQT 240604 COR
MTRP53
METAR KP53 240556Z AUTO 18005KT M03/M07 A3003 RMK AO1 SLP180
T10331072 10028 21033 53008





000
SAUS43 KMQT 240552
MTRP59
METAR KP59 240551Z AUTO 00000KT M02/M04 A3003 RMK AO1 SLP182
T10171044 10033 21017 51009





000
SAUS43 KMQT 240552
MTRP59
METAR KP59 240551Z AUTO 00000KT M02/M04 A3003 RMK AO1 SLP182
T10171044 10033 21017 51009





000
SAUS43 KMQT 240503 COR
MTRP53
METAR KP53 240456Z AUTO 19005KT M03/M07 A3002 RMK AO1 SLP175
T10281072 400281028





000
SAUS43 KMQT 240503 COR
MTRP53
METAR KP53 240456Z AUTO 19005KT M03/M07 A3002 RMK AO1 SLP175
T10281072 400281028





000
SAUS43 KMQT 240454
MTRP59
METAR KP59 240451Z AUTO 00000KT M01/M04 A3003 RMK AO1 SLP182
T10111039 400391017





000
SAUS43 KMQT 240454
MTRP59
METAR KP59 240451Z AUTO 00000KT M01/M04 A3003 RMK AO1 SLP182
T10111039 400391017





    US Dept of Commerce
    National Oceanic and Atmospheric Administration
    National Weather Service
    1325 East West Highway
    Silver Spring, MD 20910
    Page Author: NWS Internet Services Team
Disclaimer
Information Quality
Credits
Glossary
Privacy Policy
Freedom of Information Act (FOIA)
About Us
Career Opportunities